sensor_id;sensor_type;location;lat;lon;timestamp;P1;durP1;ratioP1;P2;durP2;ratioP2
24277;SDS011;12394;42.692;23.314;2024-01-11T00:00:37;50.60;;;26.83;;
24277;SDS011;12394;42.692;23.314;2024-01-11T00:03:03;48.93;;;25.13;;
24277;SDS011;12394;42.692;23.314;2024-01-11T00:05:28;50.80;;;26.90;;
24277;SDS011;12394;42.692;23.314;2024-01-11T00:07:54;48.47;;;26.13;;
24277;SDS011;12394;42.692;23.314;2024-01-11T00:10:20;52.70;;;27.50;;
24277;SDS011;12394;42.692;23.314;2024-01-11T00:12:45;59.90;;;26.27;;
24277;SDS011;12394;42.692;23.314;2024-01-11T00:15:12;54.20;;;26.13;;
24277;SDS011;12394;42.692;23.314;2024-01-11T00:17:38;44.70;;;24.23;;
24277;SDS011;12394;42.692;23.314;2024-01-11T00:20:04;44.13;;;24.70;;
24277;SDS011;12394;42.692;23.314;2024-01-11T00:22:30;46.87;;;24.23;;
24277;SDS011;12394;42.692;23.314;2024-01-11T00:24:55;52.17;;;25.50;;
24277;SDS011;12394;42.692;23.314;2024-01-11T00:27:21;55.07;;;24.93;;
24277;SDS011;12394;42.692;23.314;2024-01-11T00:29:46;46.20;;;21.80;;
24277;SDS011;12394;42.692;23.314;2024-01-11T00:32:12;37.63;;;22.13;;
24277;SDS011;12394;42.692;23.314;2024-01-11T00:34:37;46.40;;;24.07;;
24277;SDS011;12394;42.692;23.314;2024-01-11T00:37:03;51.57;;;23.43;;
24277;SDS011;12394;42.692;23.314;2024-01-11T00:39:29;41.53;;;22.23;;
24277;SDS011;12394;42.692;23.314;2024-01-11T00:41:55;51.87;;;23.00;;
24277;SDS011;12394;42.692;23.314;2024-01-11T00:44:20;52.50;;;24.03;;
24277;SDS011;12394;42.692;23.314;2024-01-11T00:46:46;42.50;;;22.87;;
24277;SDS011;12394;42.692;23.314;2024-01-11T00:49:11;44.23;;;23.63;;
24277;SDS011;12394;42.692;23.314;2024-01-11T00:51:37;43.50;;;22.37;;
24277;SDS011;12394;42.692;23.314;2024-01-11T00:54:02;40.93;;;21.53;;
24277;SDS011;12394;42.692;23.314;2024-01-11T00:56:28;35.93;;;19.70;;
24277;SDS011;12394;42.692;23.314;2024-01-11T00:58:53;38.97;;;19.60;;
24277;SDS011;12394;42.692;23.314;2024-01-11T01:01:19;40.80;;;19.90;;
24277;SDS011;12394;42.692;23.314;2024-01-11T01:03:44;28.87;;;16.80;;
24277;SDS011;12394;42.692;23.314;2024-01-11T01:06:10;33.87;;;18.23;;
24277;SDS011;12394;42.692;23.314;2024-01-11T01:08:35;34.03;;;18.27;;
24277;SDS011;12394;42.692;23.314;2024-01-11T01:11:01;35.73;;;18.73;;
24277;SDS011;12394;42.692;23.314;2024-01-11T01:13:27;32.63;;;16.93;;
24277;SDS011;12394;42.692;23.314;2024-01-11T01:15:52;31.23;;;17.37;;
24277;SDS011;12394;42.692;23.314;2024-01-11T01:18:18;31.80;;;17.10;;
24277;SDS011;12394;42.692;23.314;2024-01-11T01:20:43;25.93;;;15.37;;
24277;SDS011;12394;42.692;23.314;2024-01-11T01:23:09;31.03;;;16.63;;
24277;SDS011;12394;42.692;23.314;2024-01-11T01:25:34;30.50;;;16.63;;
24277;SDS011;12394;42.692;23.314;2024-01-11T01:28:00;31.30;;;16.93;;
24277;SDS011;12394;42.692;23.314;2024-01-11T01:30:26;30.93;;;16.93;;
24277;SDS011;12394;42.692;23.314;2024-01-11T01:32:52;30.90;;;16.33;;
24277;SDS011;12394;42.692;23.314;2024-01-11T01:35:18;34.97;;;17.23;;
24277;SDS011;12394;42.692;23.314;2024-01-11T01:37:44;38.70;;;19.00;;
24277;SDS011;12394;42.692;23.314;2024-01-11T01:40:09;38.87;;;20.13;;
24277;SDS011;12394;42.692;23.314;2024-01-11T01:42:36;40.50;;;20.83;;
24277;SDS011;12394;42.692;23.314;2024-01-11T01:45:09;35.53;;;18.63;;
24277;SDS011;12394;42.692;23.314;2024-01-11T01:47:35;31.23;;;18.33;;
24277;SDS011;12394;42.692;23.314;2024-01-11T01:50:01;35.87;;;19.77;;
24277;SDS011;12394;42.692;23.314;2024-01-11T01:52:27;32.87;;;16.07;;
24277;SDS011;12394;42.692;23.314;2024-01-11T01:54:53;32.43;;;14.70;;
24277;SDS011;12394;42.692;23.314;2024-01-11T01:57:18;29.77;;;15.67;;
24277;SDS011;12394;42.692;23.314;2024-01-11T01:59:45;30.70;;;13.93;;
24277;SDS011;12394;42.692;23.314;2024-01-11T02:02:13;31.93;;;14.30;;
24277;SDS011;12394;42.692;23.314;2024-01-11T02:04:39;22.83;;;13.30;;
24277;SDS011;12394;42.692;23.314;2024-01-11T02:07:05;28.43;;;12.27;;
24277;SDS011;12394;42.692;23.314;2024-01-11T02:09:31;24.43;;;12.93;;
24277;SDS011;12394;42.692;23.314;2024-01-11T02:11:58;24.87;;;13.70;;
24277;SDS011;12394;42.692;23.314;2024-01-11T02:14:25;27.23;;;12.73;;
24277;SDS011;12394;42.692;23.314;2024-01-11T02:16:51;22.93;;;14.07;;
24277;SDS011;12394;42.692;23.314;2024-01-11T02:19:17;25.83;;;13.17;;
24277;SDS011;12394;42.692;23.314;2024-01-11T02:21:45;26.20;;;12.70;;
24277;SDS011;12394;42.692;23.314;2024-01-11T02:24:13;26.00;;;13.10;;
24277;SDS011;12394;42.692;23.314;2024-01-11T02:29:31;20.87;;;11.43;;
24277;SDS011;12394;42.692;23.314;2024-01-11T02:31:57;22.57;;;12.63;;
24277;SDS011;12394;42.692;23.314;2024-01-11T02:34:26;23.63;;;11.17;;
24277;SDS011;12394;42.692;23.314;2024-01-11T02:36:52;18.57;;;11.17;;
24277;SDS011;12394;42.692;23.314;2024-01-11T02:39:19;20.10;;;10.37;;
24277;SDS011;12394;42.692;23.314;2024-01-11T02:41:45;23.27;;;11.60;;
24277;SDS011;12394;42.692;23.314;2024-01-11T02:44:12;26.90;;;12.80;;
24277;SDS011;12394;42.692;23.314;2024-01-11T02:46:38;30.93;;;16.97;;
24277;SDS011;12394;42.692;23.314;2024-01-11T02:49:03;23.47;;;13.80;;
24277;SDS011;12394;42.692;23.314;2024-01-11T02:51:29;35.67;;;14.67;;
24277;SDS011;12394;42.692;23.314;2024-01-11T02:53:54;34.67;;;16.67;;
24277;SDS011;12394;42.692;23.314;2024-01-11T02:56:20;25.20;;;15.07;;
24277;SDS011;12394;42.692;23.314;2024-01-11T02:58:45;32.20;;;16.87;;
24277;SDS011;12394;42.692;23.314;2024-01-11T03:01:11;31.53;;;18.03;;
24277;SDS011;12394;42.692;23.314;2024-01-11T03:03:36;30.37;;;16.77;;
24277;SDS011;12394;42.692;23.314;2024-01-11T03:06:02;28.87;;;15.30;;
24277;SDS011;12394;42.692;23.314;2024-01-11T03:08:28;32.80;;;17.60;;
24277;SDS011;12394;42.692;23.314;2024-01-11T03:10:53;31.77;;;17.97;;
24277;SDS011;12394;42.692;23.314;2024-01-11T03:13:18;31.53;;;17.50;;
24277;SDS011;12394;42.692;23.314;2024-01-11T03:15:44;35.40;;;18.63;;
24277;SDS011;12394;42.692;23.314;2024-01-11T03:18:09;31.37;;;17.70;;
24277;SDS011;12394;42.692;23.314;2024-01-11T03:20:35;37.23;;;19.93;;
24277;SDS011;12394;42.692;23.314;2024-01-11T03:23:00;37.53;;;19.27;;
24277;SDS011;12394;42.692;23.314;2024-01-11T03:25:26;31.70;;;17.57;;
24277;SDS011;12394;42.692;23.314;2024-01-11T03:27:52;29.60;;;17.87;;
24277;SDS011;12394;42.692;23.314;2024-01-11T03:30:17;33.93;;;18.10;;
24277;SDS011;12394;42.692;23.314;2024-01-11T03:32:43;35.67;;;19.30;;
24277;SDS011;12394;42.692;23.314;2024-01-11T03:35:08;34.17;;;18.70;;
24277;SDS011;12394;42.692;23.314;2024-01-11T03:37:34;35.53;;;19.60;;
24277;SDS011;12394;42.692;23.314;2024-01-11T03:40:00;36.13;;;19.63;;
24277;SDS011;12394;42.692;23.314;2024-01-11T03:42:26;38.37;;;19.50;;
24277;SDS011;12394;42.692;23.314;2024-01-11T03:44:51;35.73;;;19.07;;
24277;SDS011;12394;42.692;23.314;2024-01-11T03:47:17;41.77;;;18.77;;
24277;SDS011;12394;42.692;23.314;2024-01-11T03:49:43;40.93;;;20.27;;
24277;SDS011;12394;42.692;23.314;2024-01-11T03:52:09;32.73;;;17.53;;
24277;SDS011;12394;42.692;23.314;2024-01-11T03:54:34;38.00;;;19.77;;
24277;SDS011;12394;42.692;23.314;2024-01-11T03:57:00;35.07;;;17.57;;
24277;SDS011;12394;42.692;23.314;2024-01-11T03:59:25;34.47;;;18.87;;
24277;SDS011;12394;42.692;23.314;2024-01-11T04:01:51;29.97;;;16.07;;
24277;SDS011;12394;42.692;23.314;2024-01-11T04:04:17;32.17;;;16.70;;
24277;SDS011;12394;42.692;23.314;2024-01-11T04:06:43;30.77;;;16.63;;
24277;SDS011;12394;42.692;23.314;2024-01-11T04:09:08;29.13;;;15.93;;
24277;SDS011;12394;42.692;23.314;2024-01-11T04:11:34;33.10;;;15.17;;
24277;SDS011;12394;42.692;23.314;2024-01-11T04:13:59;26.07;;;14.67;;
24277;SDS011;12394;42.692;23.314;2024-01-11T04:16:24;26.53;;;14.10;;
24277;SDS011;12394;42.692;23.314;2024-01-11T04:18:50;32.83;;;15.00;;
24277;SDS011;12394;42.692;23.314;2024-01-11T04:21:22;30.17;;;15.53;;
24277;SDS011;12394;42.692;23.314;2024-01-11T04:23:55;29.97;;;13.97;;
24277;SDS011;12394;42.692;23.314;2024-01-11T04:26:21;27.63;;;14.50;;
24277;SDS011;12394;42.692;23.314;2024-01-11T04:28:46;32.67;;;16.33;;
24277;SDS011;12394;42.692;23.314;2024-01-11T04:31:13;32.40;;;16.60;;
24277;SDS011;12394;42.692;23.314;2024-01-11T04:33:42;30.73;;;16.03;;
24277;SDS011;12394;42.692;23.314;2024-01-11T04:36:08;28.17;;;14.90;;
24277;SDS011;12394;42.692;23.314;2024-01-11T04:38:34;28.00;;;14.73;;
24277;SDS011;12394;42.692;23.314;2024-01-11T04:41:00;30.07;;;14.67;;
24277;SDS011;12394;42.692;23.314;2024-01-11T04:43:25;31.23;;;15.47;;
24277;SDS011;12394;42.692;23.314;2024-01-11T04:45:51;38.67;;;18.03;;
24277;SDS011;12394;42.692;23.314;2024-01-11T04:48:17;32.30;;;15.13;;
24277;SDS011;12394;42.692;23.314;2024-01-11T04:50:43;28.37;;;15.73;;
24277;SDS011;12394;42.692;23.314;2024-01-11T04:53:09;39.53;;;16.60;;
24277;SDS011;12394;42.692;23.314;2024-01-11T04:55:36;32.63;;;15.80;;
24277;SDS011;12394;42.692;23.314;2024-01-11T04:58:01;32.13;;;15.43;;
24277;SDS011;12394;42.692;23.314;2024-01-11T05:00:27;32.30;;;15.87;;
24277;SDS011;12394;42.692;23.314;2024-01-11T05:02:53;26.53;;;15.27;;
24277;SDS011;12394;42.692;23.314;2024-01-11T05:05:18;38.90;;;17.13;;
24277;SDS011;12394;42.692;23.314;2024-01-11T05:07:44;26.67;;;14.67;;
24277;SDS011;12394;42.692;23.314;2024-01-11T05:10:09;30.87;;;16.60;;
24277;SDS011;12394;42.692;23.314;2024-01-11T05:12:35;28.83;;;16.43;;
24277;SDS011;12394;42.692;23.314;2024-01-11T05:15:02;29.93;;;15.40;;
24277;SDS011;12394;42.692;23.314;2024-01-11T05:17:28;33.00;;;16.63;;
24277;SDS011;12394;42.692;23.314;2024-01-11T05:19:53;30.93;;;15.87;;
24277;SDS011;12394;42.692;23.314;2024-01-11T05:22:19;31.23;;;16.40;;
24277;SDS011;12394;42.692;23.314;2024-01-11T05:24:44;43.90;;;16.93;;
24277;SDS011;12394;42.692;23.314;2024-01-11T05:27:09;33.97;;;16.00;;
24277;SDS011;12394;42.692;23.314;2024-01-11T05:29:35;28.80;;;13.80;;
24277;SDS011;12394;42.692;23.314;2024-01-11T05:32:00;29.70;;;14.87;;
24277;SDS011;12394;42.692;23.314;2024-01-11T05:34:26;29.47;;;15.00;;
24277;SDS011;12394;42.692;23.314;2024-01-11T05:36:51;36.20;;;17.30;;
24277;SDS011;12394;42.692;23.314;2024-01-11T05:39:17;31.03;;;16.03;;
24277;SDS011;12394;42.692;23.314;2024-01-11T05:41:45;29.70;;;15.57;;
24277;SDS011;12394;42.692;23.314;2024-01-11T05:44:11;34.63;;;16.40;;
24277;SDS011;12394;42.692;23.314;2024-01-11T05:46:36;28.23;;;15.90;;
24277;SDS011;12394;42.692;23.314;2024-01-11T05:49:02;31.13;;;15.80;;
24277;SDS011;12394;42.692;23.314;2024-01-11T05:51:28;36.50;;;16.80;;
24277;SDS011;12394;42.692;23.314;2024-01-11T05:53:54;32.50;;;16.87;;
24277;SDS011;12394;42.692;23.314;2024-01-11T05:56:20;28.77;;;15.20;;
24277;SDS011;12394;42.692;23.314;2024-01-11T05:58:45;33.70;;;15.77;;
24277;SDS011;12394;42.692;23.314;2024-01-11T06:01:11;26.27;;;15.67;;
24277;SDS011;12394;42.692;23.314;2024-01-11T06:03:37;32.17;;;14.57;;
24277;SDS011;12394;42.692;23.314;2024-01-11T06:06:04;31.13;;;16.00;;
24277;SDS011;12394;42.692;23.314;2024-01-11T06:08:30;25.53;;;13.70;;
24277;SDS011;12394;42.692;23.314;2024-01-11T06:10:56;25.53;;;14.33;;
24277;SDS011;12394;42.692;23.314;2024-01-11T06:13:22;21.60;;;13.07;;
24277;SDS011;12394;42.692;23.314;2024-01-11T06:15:47;20.90;;;12.03;;
24277;SDS011;12394;42.692;23.314;2024-01-11T06:18:12;21.93;;;13.33;;
24277;SDS011;12394;42.692;23.314;2024-01-11T06:20:38;25.53;;;13.33;;
24277;SDS011;12394;42.692;23.314;2024-01-11T06:23:04;26.57;;;13.90;;
24277;SDS011;12394;42.692;23.314;2024-01-11T06:25:29;27.80;;;14.80;;
24277;SDS011;12394;42.692;23.314;2024-01-11T06:27:55;30.47;;;15.43;;
24277;SDS011;12394;42.692;23.314;2024-01-11T06:30:20;25.23;;;13.97;;
24277;SDS011;12394;42.692;23.314;2024-01-11T06:32:46;31.43;;;14.07;;
24277;SDS011;12394;42.692;23.314;2024-01-11T06:35:11;24.83;;;13.90;;
24277;SDS011;12394;42.692;23.314;2024-01-11T06:37:37;28.37;;;13.43;;
24277;SDS011;12394;42.692;23.314;2024-01-11T06:40:02;22.23;;;12.87;;
24277;SDS011;12394;42.692;23.314;2024-01-11T06:42:29;29.50;;;15.93;;
24277;SDS011;12394;42.692;23.314;2024-01-11T06:44:55;28.77;;;14.37;;
24277;SDS011;12394;42.692;23.314;2024-01-11T06:47:21;29.27;;;17.57;;
24277;SDS011;12394;42.692;23.314;2024-01-11T06:49:46;33.83;;;18.60;;
24277;SDS011;12394;42.692;23.314;2024-01-11T06:52:12;53.73;;;23.23;;
24277;SDS011;12394;42.692;23.314;2024-01-11T06:54:39;50.53;;;23.60;;
24277;SDS011;12394;42.692;23.314;2024-01-11T06:57:04;42.33;;;20.03;;
24277;SDS011;12394;42.692;23.314;2024-01-11T06:59:30;39.03;;;20.63;;
24277;SDS011;12394;42.692;23.314;2024-01-11T07:01:55;36.00;;;19.80;;
24277;SDS011;12394;42.692;23.314;2024-01-11T07:04:21;43.33;;;23.03;;
24277;SDS011;12394;42.692;23.314;2024-01-11T07:06:47;57.80;;;29.27;;
24277;SDS011;12394;42.692;23.314;2024-01-11T07:09:12;41.17;;;22.70;;
24277;SDS011;12394;42.692;23.314;2024-01-11T07:11:38;37.37;;;20.83;;
24277;SDS011;12394;42.692;23.314;2024-01-11T07:14:04;44.30;;;21.43;;
24277;SDS011;12394;42.692;23.314;2024-01-11T07:16:29;32.10;;;20.20;;
24277;SDS011;12394;42.692;23.314;2024-01-11T07:18:56;34.43;;;20.00;;
24277;SDS011;12394;42.692;23.314;2024-01-11T07:21:22;33.40;;;18.17;;
24277;SDS011;12394;42.692;23.314;2024-01-11T07:23:55;33.00;;;19.40;;
24277;SDS011;12394;42.692;23.314;2024-01-11T07:26:22;32.27;;;18.73;;
24277;SDS011;12394;42.692;23.314;2024-01-11T07:28:48;43.67;;;22.53;;
24277;SDS011;12394;42.692;23.314;2024-01-11T07:31:14;31.03;;;17.50;;
24277;SDS011;12394;42.692;23.314;2024-01-11T07:33:39;35.43;;;19.27;;
24277;SDS011;12394;42.692;23.314;2024-01-11T07:36:05;27.50;;;18.27;;
24277;SDS011;12394;42.692;23.314;2024-01-11T07:38:31;26.27;;;17.40;;
24277;SDS011;12394;42.692;23.314;2024-01-11T07:40:57;23.63;;;16.70;;
24277;SDS011;12394;42.692;23.314;2024-01-11T07:43:22;27.20;;;18.17;;
24277;SDS011;12394;42.692;23.314;2024-01-11T07:45:48;28.37;;;17.23;;
24277;SDS011;12394;42.692;23.314;2024-01-11T07:48:13;26.50;;;18.37;;
24277;SDS011;12394;42.692;23.314;2024-01-11T07:50:39;31.57;;;18.70;;
24277;SDS011;12394;42.692;23.314;2024-01-11T07:53:04;37.90;;;21.17;;
24277;SDS011;12394;42.692;23.314;2024-01-11T07:55:30;41.73;;;21.37;;
24277;SDS011;12394;42.692;23.314;2024-01-11T07:57:56;47.17;;;23.03;;
24277;SDS011;12394;42.692;23.314;2024-01-11T08:00:22;39.53;;;22.63;;
24277;SDS011;12394;42.692;23.314;2024-01-11T08:02:48;49.53;;;26.07;;
24277;SDS011;12394;42.692;23.314;2024-01-11T08:05:14;39.57;;;24.00;;
24277;SDS011;12394;42.692;23.314;2024-01-11T08:07:40;36.00;;;23.47;;
24277;SDS011;12394;42.692;23.314;2024-01-11T08:10:07;47.57;;;25.17;;
24277;SDS011;12394;42.692;23.314;2024-01-11T08:12:34;40.53;;;23.50;;
24277;SDS011;12394;42.692;23.314;2024-01-11T08:15:00;59.50;;;24.87;;
24277;SDS011;12394;42.692;23.314;2024-01-11T08:17:25;46.63;;;25.47;;
24277;SDS011;12394;42.692;23.314;2024-01-11T08:19:51;51.53;;;26.50;;
24277;SDS011;12394;42.692;23.314;2024-01-11T08:22:16;42.60;;;25.87;;
24277;SDS011;12394;42.692;23.314;2024-01-11T08:24:42;42.80;;;25.53;;
24277;SDS011;12394;42.692;23.314;2024-01-11T08:27:08;51.60;;;26.97;;
24277;SDS011;12394;42.692;23.314;2024-01-11T08:29:33;46.37;;;30.13;;
24277;SDS011;12394;42.692;23.314;2024-01-11T08:31:59;45.03;;;28.27;;
24277;SDS011;12394;42.692;23.314;2024-01-11T08:34:26;44.43;;;26.60;;
24277;SDS011;12394;42.692;23.314;2024-01-11T08:36:51;43.33;;;27.70;;
24277;SDS011;12394;42.692;23.314;2024-01-11T08:39:17;48.30;;;29.60;;
24277;SDS011;12394;42.692;23.314;2024-01-11T08:41:42;48.57;;;29.30;;
24277;SDS011;12394;42.692;23.314;2024-01-11T08:44:08;55.57;;;30.97;;
24277;SDS011;12394;42.692;23.314;2024-01-11T08:46:34;41.40;;;26.70;;
24277;SDS011;12394;42.692;23.314;2024-01-11T08:49:00;42.53;;;28.67;;
24277;SDS011;12394;42.692;23.314;2024-01-11T08:51:28;49.87;;;31.53;;
24277;SDS011;12394;42.692;23.314;2024-01-11T08:53:54;54.27;;;33.37;;
24277;SDS011;12394;42.692;23.314;2024-01-11T08:56:19;52.60;;;32.47;;
24277;SDS011;12394;42.692;23.314;2024-01-11T08:58:45;45.73;;;32.57;;
24277;SDS011;12394;42.692;23.314;2024-01-11T09:01:11;51.73;;;33.77;;
24277;SDS011;12394;42.692;23.314;2024-01-11T09:03:37;59.00;;;35.70;;
24277;SDS011;12394;42.692;23.314;2024-01-11T09:06:03;48.67;;;30.47;;
24277;SDS011;12394;42.692;23.314;2024-01-11T09:08:29;58.10;;;34.87;;
24277;SDS011;12394;42.692;23.314;2024-01-11T09:10:55;44.73;;;31.33;;
24277;SDS011;12394;42.692;23.314;2024-01-11T09:13:21;56.60;;;31.93;;
24277;SDS011;12394;42.692;23.314;2024-01-11T09:15:46;43.27;;;28.70;;
24277;SDS011;12394;42.692;23.314;2024-01-11T09:18:12;39.53;;;27.37;;
24277;SDS011;12394;42.692;23.314;2024-01-11T09:20:37;40.70;;;26.80;;
24277;SDS011;12394;42.692;23.314;2024-01-11T09:23:03;34.07;;;25.13;;
24277;SDS011;12394;42.692;23.314;2024-01-11T09:25:29;39.50;;;25.13;;
24277;SDS011;12394;42.692;23.314;2024-01-11T09:27:55;45.03;;;24.53;;
24277;SDS011;12394;42.692;23.314;2024-01-11T09:30:21;42.17;;;25.63;;
24277;SDS011;12394;42.692;23.314;2024-01-11T09:32:46;36.43;;;24.20;;
24277;SDS011;12394;42.692;23.314;2024-01-11T09:35:12;34.03;;;24.33;;
24277;SDS011;12394;42.692;23.314;2024-01-11T09:37:38;39.13;;;25.87;;
24277;SDS011;12394;42.692;23.314;2024-01-11T09:40:04;37.17;;;25.30;;
24277;SDS011;12394;42.692;23.314;2024-01-11T09:42:35;35.70;;;24.20;;
24277;SDS011;12394;42.692;23.314;2024-01-11T09:45:07;38.13;;;24.93;;
24277;SDS011;12394;42.692;23.314;2024-01-11T09:47:35;35.37;;;24.10;;
24277;SDS011;12394;42.692;23.314;2024-01-11T09:50:04;41.23;;;25.13;;
24277;SDS011;12394;42.692;23.314;2024-01-11T09:52:30;37.47;;;25.13;;
24277;SDS011;12394;42.692;23.314;2024-01-11T09:54:57;37.33;;;24.30;;
24277;SDS011;12394;42.692;23.314;2024-01-11T09:57:28;38.07;;;24.63;;
24277;SDS011;12394;42.692;23.314;2024-01-11T09:59:55;44.30;;;26.63;;
24277;SDS011;12394;42.692;23.314;2024-01-11T10:02:22;68.73;;;28.93;;
24277;SDS011;12394;42.692;23.314;2024-01-11T10:04:49;36.30;;;24.73;;
24277;SDS011;12394;42.692;23.314;2024-01-11T10:07:17;39.00;;;25.23;;
24277;SDS011;12394;42.692;23.314;2024-01-11T10:09:45;35.80;;;25.27;;
24277;SDS011;12394;42.692;23.314;2024-01-11T10:12:11;39.90;;;24.07;;
24277;SDS011;12394;42.692;23.314;2024-01-11T10:14:37;55.93;;;37.73;;
24277;SDS011;12394;42.692;23.314;2024-01-11T10:17:02;47.40;;;29.47;;
24277;SDS011;12394;42.692;23.314;2024-01-11T10:19:28;37.83;;;26.27;;
24277;SDS011;12394;42.692;23.314;2024-01-11T10:21:54;40.77;;;25.80;;
24277;SDS011;12394;42.692;23.314;2024-01-11T10:24:20;46.57;;;27.63;;
24277;SDS011;12394;42.692;23.314;2024-01-11T10:26:47;41.47;;;26.73;;
24277;SDS011;12394;42.692;23.314;2024-01-11T10:29:12;38.00;;;26.53;;
24277;SDS011;12394;42.692;23.314;2024-01-11T10:31:38;41.23;;;26.00;;
24277;SDS011;12394;42.692;23.314;2024-01-11T10:34:04;38.20;;;24.57;;
24277;SDS011;12394;42.692;23.314;2024-01-11T10:36:31;37.60;;;23.53;;
24277;SDS011;12394;42.692;23.314;2024-01-11T10:38:58;34.20;;;24.07;;
24277;SDS011;12394;42.692;23.314;2024-01-11T10:41:50;41.33;;;28.13;;
24277;SDS011;12394;42.692;23.314;2024-01-11T10:44:20;36.27;;;26.27;;
24277;SDS011;12394;42.692;23.314;2024-01-11T10:46:48;38.13;;;23.83;;
24277;SDS011;12394;42.692;23.314;2024-01-11T10:49:18;36.23;;;24.03;;
24277;SDS011;12394;42.692;23.314;2024-01-11T10:51:59;37.13;;;23.33;;
24277;SDS011;12394;42.692;23.314;2024-01-11T10:54:27;37.03;;;23.73;;
24277;SDS011;12394;42.692;23.314;2024-01-11T10:56:53;29.37;;;21.80;;
24277;SDS011;12394;42.692;23.314;2024-01-11T10:59:20;37.13;;;22.40;;
24277;SDS011;12394;42.692;23.314;2024-01-11T11:01:53;38.60;;;21.27;;
24277;SDS011;12394;42.692;23.314;2024-01-11T11:04:22;35.37;;;19.33;;
24277;SDS011;12394;42.692;23.314;2024-01-11T11:06:52;29.70;;;17.73;;
24277;SDS011;12394;42.692;23.314;2024-01-11T11:09:22;29.03;;;19.13;;
24277;SDS011;12394;42.692;23.314;2024-01-11T11:11:48;37.00;;;19.70;;
24277;SDS011;12394;42.692;23.314;2024-01-11T11:14:14;35.90;;;18.50;;
24277;SDS011;12394;42.692;23.314;2024-01-11T11:16:40;24.03;;;16.73;;
24277;SDS011;12394;42.692;23.314;2024-01-11T11:19:07;23.57;;;16.33;;
24277;SDS011;12394;42.692;23.314;2024-01-11T11:21:41;22.60;;;16.53;;
24277;SDS011;12394;42.692;23.314;2024-01-11T11:24:10;25.43;;;15.57;;
24277;SDS011;12394;42.692;23.314;2024-01-11T11:26:36;25.00;;;17.43;;
24277;SDS011;12394;42.692;23.314;2024-01-11T11:29:05;38.67;;;18.93;;
24277;SDS011;12394;42.692;23.314;2024-01-11T11:31:42;34.53;;;18.57;;
24277;SDS011;12394;42.692;23.314;2024-01-11T11:34:13;35.50;;;16.70;;
24277;SDS011;12394;42.692;23.314;2024-01-11T11:36:42;29.57;;;18.10;;
24277;SDS011;12394;42.692;23.314;2024-01-11T11:39:11;28.00;;;15.73;;
24277;SDS011;12394;42.692;23.314;2024-01-11T11:41:36;31.07;;;18.40;;
24277;SDS011;12394;42.692;23.314;2024-01-11T11:44:04;32.37;;;20.60;;
24277;SDS011;12394;42.692;23.314;2024-01-11T11:46:31;32.83;;;17.97;;
24277;SDS011;12394;42.692;23.314;2024-01-11T11:48:58;33.57;;;17.07;;
24277;SDS011;12394;42.692;23.314;2024-01-11T11:51:24;23.93;;;15.83;;
24277;SDS011;12394;42.692;23.314;2024-01-11T11:53:50;29.30;;;14.07;;
24277;SDS011;12394;42.692;23.314;2024-01-11T11:56:17;25.80;;;15.97;;
24277;SDS011;12394;42.692;23.314;2024-01-11T11:58:45;31.70;;;15.03;;
24277;SDS011;12394;42.692;23.314;2024-01-11T12:01:11;21.07;;;13.47;;
24277;SDS011;12394;42.692;23.314;2024-01-11T12:03:42;19.43;;;12.17;;
24277;SDS011;12394;42.692;23.314;2024-01-11T12:06:14;19.73;;;11.70;;
24277;SDS011;12394;42.692;23.314;2024-01-11T12:08:41;18.27;;;11.57;;
24277;SDS011;12394;42.692;23.314;2024-01-11T12:11:08;17.77;;;11.43;;
24277;SDS011;12394;42.692;23.314;2024-01-11T12:13:33;15.50;;;10.97;;
24277;SDS011;12394;42.692;23.314;2024-01-11T12:16:01;24.20;;;12.57;;
24277;SDS011;12394;42.692;23.314;2024-01-11T12:18:27;16.40;;;10.67;;
24277;SDS011;12394;42.692;23.314;2024-01-11T12:20:52;18.27;;;10.50;;
24277;SDS011;12394;42.692;23.314;2024-01-11T12:23:18;16.40;;;9.67;;
24277;SDS011;12394;42.692;23.314;2024-01-11T12:25:44;15.43;;;10.10;;
24277;SDS011;12394;42.692;23.314;2024-01-11T12:28:10;17.90;;;9.77;;
24277;SDS011;12394;42.692;23.314;2024-01-11T12:30:36;18.03;;;9.70;;
24277;SDS011;12394;42.692;23.314;2024-01-11T12:33:03;14.23;;;9.40;;
24277;SDS011;12394;42.692;23.314;2024-01-11T12:35:30;27.53;;;8.43;;
24277;SDS011;12394;42.692;23.314;2024-01-11T12:38:00;15.00;;;8.43;;
24277;SDS011;12394;42.692;23.314;2024-01-11T12:40:33;9.37;;;6.67;;
24277;SDS011;12394;42.692;23.314;2024-01-11T12:43:05;6.67;;;4.70;;
24277;SDS011;12394;42.692;23.314;2024-01-11T12:45:33;13.83;;;4.90;;
24277;SDS011;12394;42.692;23.314;2024-01-11T12:47:59;9.20;;;5.47;;
24277;SDS011;12394;42.692;23.314;2024-01-11T12:50:28;12.73;;;5.20;;
24277;SDS011;12394;42.692;23.314;2024-01-11T12:56:17;8.60;;;5.70;;
24277;SDS011;12394;42.692;23.314;2024-01-11T12:58:45;10.13;;;5.30;;
24277;SDS011;12394;42.692;23.314;2024-01-11T13:01:12;7.43;;;5.10;;
24277;SDS011;12394;42.692;23.314;2024-01-11T13:03:43;12.30;;;5.97;;
24277;SDS011;12394;42.692;23.314;2024-01-11T13:06:10;10.33;;;4.93;;
24277;SDS011;12394;42.692;23.314;2024-01-11T13:08:37;7.83;;;4.97;;
24277;SDS011;12394;42.692;23.314;2024-01-11T13:11:06;9.13;;;5.60;;
24277;SDS011;12394;42.692;23.314;2024-01-11T13:13:33;6.57;;;5.17;;
24277;SDS011;12394;42.692;23.314;2024-01-11T13:15:59;9.77;;;5.57;;
24277;SDS011;12394;42.692;23.314;2024-01-11T13:18:25;9.20;;;5.27;;
24277;SDS011;12394;42.692;23.314;2024-01-11T13:20:51;7.33;;;4.67;;
24277;SDS011;12394;42.692;23.314;2024-01-11T13:23:17;8.93;;;5.03;;
24277;SDS011;12394;42.692;23.314;2024-01-11T13:25:46;9.67;;;5.13;;
24277;SDS011;12394;42.692;23.314;2024-01-11T13:28:12;8.80;;;5.00;;
24277;SDS011;12394;42.692;23.314;2024-01-11T13:30:38;7.23;;;4.23;;
24277;SDS011;12394;42.692;23.314;2024-01-11T13:33:05;9.87;;;4.63;;
24277;SDS011;12394;42.692;23.314;2024-01-11T13:35:33;7.37;;;5.10;;
24277;SDS011;12394;42.692;23.314;2024-01-11T13:38:02;9.13;;;4.63;;
24277;SDS011;12394;42.692;23.314;2024-01-11T13:40:28;7.23;;;5.10;;
24277;SDS011;12394;42.692;23.314;2024-01-11T13:42:55;12.10;;;4.83;;
24277;SDS011;12394;42.692;23.314;2024-01-11T13:45:26;7.07;;;5.60;;
24277;SDS011;12394;42.692;23.314;2024-01-11T13:47:51;8.20;;;5.40;;
24277;SDS011;12394;42.692;23.314;2024-01-11T13:50:23;7.83;;;4.70;;
24277;SDS011;12394;42.692;23.314;2024-01-11T13:52:49;12.27;;;5.97;;
24277;SDS011;12394;42.692;23.314;2024-01-11T13:55:15;9.83;;;5.77;;
24277;SDS011;12394;42.692;23.314;2024-01-11T13:57:42;9.37;;;5.70;;
24277;SDS011;12394;42.692;23.314;2024-01-11T14:00:08;11.23;;;5.87;;
24277;SDS011;12394;42.692;23.314;2024-01-11T14:02:36;10.53;;;5.73;;
24277;SDS011;12394;42.692;23.314;2024-01-11T14:05:02;6.87;;;5.10;;
24277;SDS011;12394;42.692;23.314;2024-01-11T14:07:29;8.77;;;6.37;;
24277;SDS011;12394;42.692;23.314;2024-01-11T14:09:55;9.60;;;5.67;;
24277;SDS011;12394;42.692;23.314;2024-01-11T14:12:21;8.77;;;5.27;;